sensor_id;sensor_type;location;lat;lon;timestamp;pressure;altitude;pressure_sealevel;temperature;humidity
19676;BME280;39539;52.202;9.876;2024-03-02T00:01:39;99593.22;;;8.06;100.00
19676;BME280;39539;52.202;9.876;2024-03-02T00:04:07;99594.00;;;8.06;100.00
19676;BME280;39539;52.202;9.876;2024-03-02T00:06:33;99592.19;;;8.07;100.00
19676;BME280;39539;52.202;9.876;2024-03-02T00:09:14;99586.38;;;7.98;100.00
19676;BME280;39539;52.202;9.876;2024-03-02T00:11:40;99585.53;;;7.98;100.00
19676;BME280;39539;52.202;9.876;2024-03-02T00:14:11;99586.22;;;7.93;100.00
19676;BME280;39539;52.202;9.876;2024-03-02T00:16:39;99597.38;;;7.95;100.00
19676;BME280;39539;52.202;9.876;2024-03-02T00:19:17;99582.09;;;7.97;100.00
19676;BME280;39539;52.202;9.876;2024-03-02T00:21:54;99586.63;;;7.90;100.00
19676;BME280;39539;52.202;9.876;2024-03-02T00:24:34;99586.03;;;7.88;100.00
19676;BME280;39539;52.202;9.876;2024-03-02T00:27:03;99572.88;;;7.81;100.00
19676;BME280;39539;52.202;9.876;2024-03-02T00:29:29;99582.03;;;7.79;100.00
19676;BME280;39539;52.202;9.876;2024-03-02T00:32:00;99589.56;;;7.82;100.00
19676;BME280;39539;52.202;9.876;2024-03-02T00:34:27;99583.59;;;7.86;100.00
19676;BME280;39539;52.202;9.876;2024-03-02T00:36:52;99583.41;;;7.88;100.00
19676;BME280;39539;52.202;9.876;2024-03-02T00:39:18;99566.19;;;7.79;100.00
19676;BME280;39539;52.202;9.876;2024-03-02T00:41:46;99588.41;;;7.96;100.00
19676;BME280;39539;52.202;9.876;2024-03-02T00:44:13;99581.09;;;7.98;100.00
19676;BME280;39539;52.202;9.876;2024-03-02T00:46:41;99580.66;;;8.01;100.00
19676;BME280;39539;52.202;9.876;2024-03-02T00:49:22;99581.81;;;8.05;100.00
19676;BME280;39539;52.202;9.876;2024-03-02T00:51:48;99583.00;;;8.09;100.00
19676;BME280;39539;52.202;9.876;2024-03-02T00:54:22;99585.00;;;8.14;100.00
19676;BME280;39539;52.202;9.876;2024-03-02T00:56:55;99590.66;;;8.18;100.00
19676;BME280;39539;52.202;9.876;2024-03-02T00:59:24;99601.47;;;8.16;100.00
19676;BME280;39539;52.202;9.876;2024-03-02T01:01:53;99580.94;;;8.12;100.00
19676;BME280;39539;52.202;9.876;2024-03-02T01:04:19;99591.91;;;8.15;100.00
19676;BME280;39539;52.202;9.876;2024-03-02T01:06:45;99591.59;;;8.05;100.00
19676;BME280;39539;52.202;9.876;2024-03-02T01:09:26;99608.66;;;8.09;100.00
19676;BME280;39539;52.202;9.876;2024-03-02T01:11:53;99596.66;;;8.06;100.00
19676;BME280;39539;52.202;9.876;2024-03-02T01:14:20;99598.72;;;8.04;100.00
19676;BME280;39539;52.202;9.876;2024-03-02T01:16:54;99598.56;;;7.99;100.00
19676;BME280;39539;52.202;9.876;2024-03-02T01:19:19;99606.44;;;8.06;100.00
19676;BME280;39539;52.202;9.876;2024-03-02T01:21:50;99610.31;;;8.03;100.00
19676;BME280;39539;52.202;9.876;2024-03-02T01:24:16;99608.38;;;7.92;100.00
19676;BME280;39539;52.202;9.876;2024-03-02T01:26:57;99615.06;;;7.95;100.00
19676;BME280;39539;52.202;9.876;2024-03-02T01:29:22;99610.44;;;7.90;100.00
19676;BME280;39539;52.202;9.876;2024-03-02T01:31:48;99607.56;;;7.92;100.00
19676;BME280;39539;52.202;9.876;2024-03-02T01:34:14;99617.09;;;7.99;100.00
19676;BME280;39539;52.202;9.876;2024-03-02T01:36:40;99601.28;;;7.93;100.00
19676;BME280;39539;52.202;9.876;2024-03-02T01:39:15;99610.56;;;8.02;100.00
19676;BME280;39539;52.202;9.876;2024-03-02T01:41:43;99613.13;;;8.08;100.00
19676;BME280;39539;52.202;9.876;2024-03-02T01:44:08;99616.75;;;8.14;100.00
19676;BME280;39539;52.202;9.876;2024-03-02T01:46:33;99608.00;;;8.14;100.00
19676;BME280;39539;52.202;9.876;2024-03-02T01:49:01;99600.88;;;8.14;100.00
19676;BME280;39539;52.202;9.876;2024-03-02T01:51:58;99602.44;;;8.22;100.00
19676;BME280;39539;52.202;9.876;2024-03-02T01:54:23;99576.78;;;7.97;100.00
19676;BME280;39539;52.202;9.876;2024-03-02T01:56:55;99577.34;;;8.06;100.00
19676;BME280;39539;52.202;9.876;2024-03-02T01:59:21;99598.66;;;8.11;100.00
19676;BME280;39539;52.202;9.876;2024-03-02T02:01:46;99585.53;;;7.98;100.00
19676;BME280;39539;52.202;9.876;2024-03-02T02:04:13;99590.47;;;7.94;100.00
19676;BME280;39539;52.202;9.876;2024-03-02T02:06:45;99593.91;;;7.95;100.00
19676;BME280;39539;52.202;9.876;2024-03-02T02:09:10;99574.25;;;7.84;100.00
19676;BME280;39539;52.202;9.876;2024-03-02T02:11:35;99587.22;;;7.92;100.00
19676;BME280;39539;52.202;9.876;2024-03-02T02:14:01;99590.41;;;8.01;100.00
19676;BME280;39539;52.202;9.876;2024-03-02T02:16:26;99587.72;;;8.07;100.00
19676;BME280;39539;52.202;9.876;2024-03-02T02:18:51;99588.72;;;8.06;100.00
19676;BME280;39539;52.202;9.876;2024-03-02T02:21:17;99583.00;;;8.09;100.00
19676;BME280;39539;52.202;9.876;2024-03-02T02:23:45;99564.16;;;7.99;100.00
19676;BME280;39539;52.202;9.876;2024-03-02T02:26:14;99571.66;;;8.02;100.00
19676;BME280;39539;52.202;9.876;2024-03-02T02:28:42;99582.25;;;8.02;100.00
19676;BME280;39539;52.202;9.876;2024-03-02T02:31:15;99569.22;;;8.01;100.00
19676;BME280;39539;52.202;9.876;2024-03-02T02:33:40;99565.56;;;8.02;100.00
19676;BME280;39539;52.202;9.876;2024-03-02T02:36:06;99566.09;;;8.10;100.00
19676;BME280;39539;52.202;9.876;2024-03-02T02:38:50;99575.66;;;8.12;100.00
19676;BME280;39539;52.202;9.876;2024-03-02T02:41:15;99564.63;;;8.15;100.00
19676;BME280;39539;52.202;9.876;2024-03-02T02:43:41;99571.13;;;8.19;100.00
19676;BME280;39539;52.202;9.876;2024-03-02T02:46:09;99567.94;;;8.10;100.00
19676;BME280;39539;52.202;9.876;2024-03-02T02:48:34;99566.53;;;8.07;100.00
19676;BME280;39539;52.202;9.876;2024-03-02T02:51:00;99576.88;;;8.09;100.00
19676;BME280;39539;52.202;9.876;2024-03-02T02:53:27;99563.47;;;8.10;100.00
19676;BME280;39539;52.202;9.876;2024-03-02T02:55:52;99567.09;;;8.09;100.00
19676;BME280;39539;52.202;9.876;2024-03-02T02:58:17;99559.47;;;8.01;100.00
19676;BME280;39539;52.202;9.876;2024-03-02T03:00:43;99555.63;;;7.97;100.00
19676;BME280;39539;52.202;9.876;2024-03-02T03:03:08;99555.44;;;7.99;100.00
19676;BME280;39539;52.202;9.876;2024-03-02T03:05:36;99541.88;;;7.88;100.00
19676;BME280;39539;52.202;9.876;2024-03-02T03:08:02;99549.16;;;7.93;100.00
19676;BME280;39539;52.202;9.876;2024-03-02T03:10:27;99545.28;;;7.96;100.00
19676;BME280;39539;52.202;9.876;2024-03-02T03:12:53;99530.13;;;7.84;100.00
19676;BME280;39539;52.202;9.876;2024-03-02T03:15:18;99556.22;;;7.99;100.00
19676;BME280;39539;52.202;9.876;2024-03-02T03:17:45;99539.75;;;7.97;100.00
19676;BME280;39539;52.202;9.876;2024-03-02T03:20:12;99535.66;;;8.01;100.00
19676;BME280;39539;52.202;9.876;2024-03-02T03:22:40;99542.34;;;8.04;100.00
19676;BME280;39539;52.202;9.876;2024-03-02T03:25:06;99518.06;;;7.88;100.00
19676;BME280;39539;52.202;9.876;2024-03-02T03:27:48;99544.69;;;7.94;100.00
19676;BME280;39539;52.202;9.876;2024-03-02T03:30:14;99518.03;;;7.70;100.00
19676;BME280;39539;52.202;9.876;2024-03-02T03:32:41;99546.63;;;7.80;100.00
19676;BME280;39539;52.202;9.876;2024-03-02T03:35:09;99549.53;;;7.72;100.00
19676;BME280;39539;52.202;9.876;2024-03-02T03:37:35;99546.72;;;7.67;100.00
19676;BME280;39539;52.202;9.876;2024-03-02T03:40:02;99540.69;;;7.59;100.00
19676;BME280;39539;52.202;9.876;2024-03-02T03:42:34;99539.47;;;7.55;100.00
19676;BME280;39539;52.202;9.876;2024-03-02T03:45:02;99540.94;;;7.51;100.00
19676;BME280;39539;52.202;9.876;2024-03-02T03:47:39;99540.94;;;7.51;100.00
19676;BME280;39539;52.202;9.876;2024-03-02T03:50:10;99535.75;;;7.38;100.00
19676;BME280;39539;52.202;9.876;2024-03-02T03:52:35;99536.41;;;7.33;100.00
19676;BME280;39539;52.202;9.876;2024-03-02T03:55:19;99538.50;;;7.25;100.00
19676;BME280;39539;52.202;9.876;2024-03-02T03:57:47;99527.38;;;7.09;100.00
19676;BME280;39539;52.202;9.876;2024-03-02T04:00:13;99513.63;;;7.01;100.00
19676;BME280;39539;52.202;9.876;2024-03-02T04:02:38;99536.47;;;7.20;100.00
19676;BME280;39539;52.202;9.876;2024-03-02T04:05:04;99511.34;;;7.11;100.00
19676;BME280;39539;52.202;9.876;2024-03-02T04:07:34;99524.50;;;7.17;100.00
19676;BME280;39539;52.202;9.876;2024-03-02T04:10:11;99527.94;;;7.18;100.00
19676;BME280;39539;52.202;9.876;2024-03-02T04:12:52;99540.72;;;7.21;100.00
19676;BME280;39539;52.202;9.876;2024-03-02T04:15:18;99535.69;;;7.19;100.00
19676;BME280;39539;52.202;9.876;2024-03-02T04:17:56;99548.84;;;7.26;100.00
19676;BME280;39539;52.202;9.876;2024-03-02T04:20:24;99533.66;;;7.15;100.00
19676;BME280;39539;52.202;9.876;2024-03-02T04:22:50;99534.22;;;7.24;100.00
19676;BME280;39539;52.202;9.876;2024-03-02T04:25:18;99540.66;;;7.34;100.00
19676;BME280;39539;52.202;9.876;2024-03-02T04:27:45;99546.50;;;7.43;100.00
19676;BME280;39539;52.202;9.876;2024-03-02T04:30:13;99538.75;;;7.41;100.00
19676;BME280;39539;52.202;9.876;2024-03-02T04:32:42;99544.09;;;7.35;100.00
19676;BME280;39539;52.202;9.876;2024-03-02T04:35:14;99551.78;;;7.43;100.00
19676;BME280;39539;52.202;9.876;2024-03-02T04:37:39;99550.19;;;7.42;100.00
19676;BME280;39539;52.202;9.876;2024-03-02T04:40:05;99543.22;;;7.48;100.00
19676;BME280;39539;52.202;9.876;2024-03-02T04:42:35;99545.63;;;7.49;100.00
19676;BME280;39539;52.202;9.876;2024-03-02T04:45:00;99548.09;;;7.44;100.00
19676;BME280;39539;52.202;9.876;2024-03-02T04:47:41;99543.06;;;7.36;100.00
19676;BME280;39539;52.202;9.876;2024-03-02T04:50:25;99545.81;;;7.23;100.00
19676;BME280;39539;52.202;9.876;2024-03-02T04:52:51;99561.91;;;7.14;100.00
19676;BME280;39539;52.202;9.876;2024-03-02T04:55:19;99546.91;;;7.08;100.00
19676;BME280;39539;52.202;9.876;2024-03-02T04:57:45;99567.44;;;7.06;100.00
19676;BME280;39539;52.202;9.876;2024-03-02T05:00:21;99561.78;;;6.96;100.00
19676;BME280;39539;52.202;9.876;2024-03-02T05:02:48;99560.41;;;6.87;100.00
19676;BME280;39539;52.202;9.876;2024-03-02T05:05:16;99560.22;;;6.82;100.00
19676;BME280;39539;52.202;9.876;2024-03-02T05:07:43;99558.25;;;6.77;100.00
19676;BME280;39539;52.202;9.876;2024-03-02T05:10:12;99559.09;;;6.64;100.00
19676;BME280;39539;52.202;9.876;2024-03-02T05:12:38;99563.19;;;6.60;100.00
19676;BME280;39539;52.202;9.876;2024-03-02T05:15:06;99570.69;;;6.63;100.00
19676;BME280;39539;52.202;9.876;2024-03-02T05:17:39;99577.38;;;6.59;100.00
19676;BME280;39539;52.202;9.876;2024-03-02T05:20:08;99571.50;;;6.57;100.00
19676;BME280;39539;52.202;9.876;2024-03-02T05:22:43;99573.97;;;6.52;100.00
19676;BME280;39539;52.202;9.876;2024-03-02T05:25:10;99569.88;;;6.56;100.00
19676;BME280;39539;52.202;9.876;2024-03-02T05:27:36;99582.69;;;6.52;100.00
19676;BME280;39539;52.202;9.876;2024-03-02T05:30:14;99578.44;;;6.51;100.00
19676;BME280;39539;52.202;9.876;2024-03-02T05:32:43;99575.59;;;6.46;100.00
19676;BME280;39539;52.202;9.876;2024-03-02T05:35:08;99575.63;;;6.40;100.00
19676;BME280;39539;52.202;9.876;2024-03-02T05:37:33;99565.28;;;6.32;100.00
19676;BME280;39539;52.202;9.876;2024-03-02T05:39:59;99579.66;;;6.36;100.00
19676;BME280;39539;52.202;9.876;2024-03-02T05:42:24;99583.72;;;6.45;100.00
19676;BME280;39539;52.202;9.876;2024-03-02T05:44:51;99593.25;;;6.46;100.00
19676;BME280;39539;52.202;9.876;2024-03-02T05:47:22;99585.75;;;6.43;100.00
19676;BME280;39539;52.202;9.876;2024-03-02T05:49:51;99583.91;;;6.50;100.00
19676;BME280;39539;52.202;9.876;2024-03-02T05:52:17;99588.16;;;6.51;100.00
19676;BME280;39539;52.202;9.876;2024-03-02T05:54:44;99591.22;;;6.48;100.00
19676;BME280;39539;52.202;9.876;2024-03-02T05:57:09;99587.00;;;6.40;100.00
19676;BME280;39539;52.202;9.876;2024-03-02T06:00:02;99599.34;;;6.46;100.00
19676;BME280;39539;52.202;9.876;2024-03-02T06:02:33;99594.88;;;6.47;100.00
19676;BME280;39539;52.202;9.876;2024-03-02T06:05:00;99595.69;;;6.54;100.00
19676;BME280;39539;52.202;9.876;2024-03-02T06:07:25;99601.34;;;6.51;100.00
19676;BME280;39539;52.202;9.876;2024-03-02T06:09:51;99592.03;;;6.48;100.00
19676;BME280;39539;52.202;9.876;2024-03-02T06:12:18;99598.97;;;6.43;100.00
19676;BME280;39539;52.202;9.876;2024-03-02T06:14:43;99611.09;;;6.50;100.00
19676;BME280;39539;52.202;9.876;2024-03-02T06:17:09;99610.31;;;6.50;100.00
19676;BME280;39539;52.202;9.876;2024-03-02T06:19:35;99611.13;;;6.57;100.00
19676;BME280;39539;52.202;9.876;2024-03-02T06:22:01;99608.47;;;6.57;100.00
19676;BME280;39539;52.202;9.876;2024-03-02T06:24:28;99608.84;;;6.67;100.00
19676;BME280;39539;52.202;9.876;2024-03-02T06:26:53;99614.69;;;6.83;100.00
19676;BME280;39539;52.202;9.876;2024-03-02T06:29:22;99629.88;;;7.01;100.00
19676;BME280;39539;52.202;9.876;2024-03-02T06:31:48;99632.88;;;7.11;100.00
19676;BME280;39539;52.202;9.876;2024-03-02T06:34:13;99632.38;;;7.27;100.00
19676;BME280;39539;52.202;9.876;2024-03-02T06:36:39;99625.84;;;7.36;100.00
19676;BME280;39539;52.202;9.876;2024-03-02T06:39:05;99641.03;;;7.48;100.00
19676;BME280;39539;52.202;9.876;2024-03-02T06:41:31;99638.34;;;7.54;100.00
19676;BME280;39539;52.202;9.876;2024-03-02T06:43:56;99633.78;;;7.68;100.00
19676;BME280;39539;52.202;9.876;2024-03-02T06:46:25;99650.78;;;7.85;100.00
19676;BME280;39539;52.202;9.876;2024-03-02T06:49:03;99646.41;;;7.98;100.00
19676;BME280;39539;52.202;9.876;2024-03-02T06:51:29;99648.59;;;8.07;100.00
19676;BME280;39539;52.202;9.876;2024-03-02T06:53:55;99641.13;;;8.23;100.00
19676;BME280;39539;52.202;9.876;2024-03-02T06:56:39;99636.72;;;8.42;100.00
19676;BME280;39539;52.202;9.876;2024-03-02T06:59:06;99628.56;;;8.62;100.00
19676;BME280;39539;52.202;9.876;2024-03-02T07:01:32;99632.34;;;8.72;100.00
19676;BME280;39539;52.202;9.876;2024-03-02T07:04:13;99627.41;;;8.76;100.00
19676;BME280;39539;52.202;9.876;2024-03-02T07:06:50;99629.72;;;9.03;100.00
19676;BME280;39539;52.202;9.876;2024-03-02T07:09:16;99641.81;;;9.77;98.77
19676;BME280;39539;52.202;9.876;2024-03-02T07:11:57;99647.13;;;10.54;92.45
19676;BME280;39539;52.202;9.876;2024-03-02T07:14:23;99640.19;;;10.77;88.17
19676;BME280;39539;52.202;9.876;2024-03-02T07:17:08;99629.56;;;11.17;85.38
19676;BME280;39539;52.202;9.876;2024-03-02T07:19:38;99637.44;;;11.69;82.08
19676;BME280;39539;52.202;9.876;2024-03-02T07:22:06;99641.06;;;11.92;79.69
19676;BME280;39539;52.202;9.876;2024-03-02T07:24:41;99636.88;;;12.69;78.09
19676;BME280;39539;52.202;9.876;2024-03-02T07:27:10;99635.47;;;13.27;74.33
19676;BME280;39539;52.202;9.876;2024-03-02T07:29:36;99638.66;;;13.73;71.61
19676;BME280;39539;52.202;9.876;2024-03-02T07:32:02;99625.97;;;13.90;70.16
19676;BME280;39539;52.202;9.876;2024-03-02T07:34:28;99622.44;;;14.17;69.33
19676;BME280;39539;52.202;9.876;2024-03-02T07:36:56;99629.09;;;14.52;66.04
19676;BME280;39539;52.202;9.876;2024-03-02T07:39:21;99633.25;;;15.48;64.23
19676;BME280;39539;52.202;9.876;2024-03-02T07:41:56;99633.56;;;16.38;60.15
19676;BME280;39539;52.202;9.876;2024-03-02T07:44:22;99629.97;;;16.94;58.36
19676;BME280;39539;52.202;9.876;2024-03-02T07:46:50;99626.63;;;17.18;57.88
19676;BME280;39539;52.202;9.876;2024-03-02T07:49:16;99625.28;;;17.20;56.96
19676;BME280;39539;52.202;9.876;2024-03-02T07:51:44;99617.97;;;17.36;56.34
19676;BME280;39539;52.202;9.876;2024-03-02T07:54:10;99616.81;;;17.47;55.37
19676;BME280;39539;52.202;9.876;2024-03-02T07:56:36;99606.84;;;17.53;55.35
19676;BME280;39539;52.202;9.876;2024-03-02T07:59:03;99595.06;;;16.99;56.14
19676;BME280;39539;52.202;9.876;2024-03-02T08:01:29;99585.81;;;16.46;57.12
19676;BME280;39539;52.202;9.876;2024-03-02T08:03:57;99595.50;;;16.26;58.11
19676;BME280;39539;52.202;9.876;2024-03-02T08:06:24;99584.50;;;15.56;59.58
19676;BME280;39539;52.202;9.876;2024-03-02T08:08:53;99597.06;;;15.35;60.69
19676;BME280;39539;52.202;9.876;2024-03-02T08:11:18;99585.81;;;15.33;60.21
19676;BME280;39539;52.202;9.876;2024-03-02T08:13:43;99592.56;;;15.61;60.29
19676;BME280;39539;52.202;9.876;2024-03-02T08:16:09;99588.00;;;16.33;59.43
19676;BME280;39539;52.202;9.876;2024-03-02T08:18:35;99591.72;;;16.48;57.85
19676;BME280;39539;52.202;9.876;2024-03-02T08:21:01;99595.41;;;16.82;57.09
19676;BME280;39539;52.202;9.876;2024-03-02T08:23:27;99564.81;;;16.68;56.12
19676;BME280;39539;52.202;9.876;2024-03-02T08:25:52;99562.94;;;16.79;55.81
19676;BME280;39539;52.202;9.876;2024-03-02T08:28:19;99587.09;;;17.34;55.11
19676;BME280;39539;52.202;9.876;2024-03-02T08:30:45;99577.69;;;17.31;55.44
19676;BME280;39539;52.202;9.876;2024-03-02T08:33:11;99585.00;;;17.99;53.92
19676;BME280;39539;52.202;9.876;2024-03-02T08:35:37;99576.81;;;18.62;52.35
19676;BME280;39539;52.202;9.876;2024-03-02T08:38:03;99578.84;;;19.38;51.38
19676;BME280;39539;52.202;9.876;2024-03-02T08:40:29;99573.09;;;19.96;49.77
19676;BME280;39539;52.202;9.876;2024-03-02T08:42:55;99569.09;;;20.54;49.31
19676;BME280;39539;52.202;9.876;2024-03-02T08:45:21;99568.16;;;21.36;47.79
19676;BME280;39539;52.202;9.876;2024-03-02T08:47:48;99557.38;;;21.59;46.64
19676;BME280;39539;52.202;9.876;2024-03-02T08:50:20;99552.28;;;21.57;45.84
19676;BME280;39539;52.202;9.876;2024-03-02T08:52:47;99538.47;;;20.31;47.00
19676;BME280;39539;52.202;9.876;2024-03-02T08:55:12;99534.22;;;19.97;48.22
19676;BME280;39539;52.202;9.876;2024-03-02T08:57:39;99537.59;;;19.56;49.99
19676;BME280;39539;52.202;9.876;2024-03-02T09:00:07;99528.09;;;19.07;50.54
19676;BME280;39539;52.202;9.876;2024-03-02T09:02:32;99530.72;;;19.12;51.22
19676;BME280;39539;52.202;9.876;2024-03-02T09:04:58;99519.97;;;18.21;52.69
19676;BME280;39539;52.202;9.876;2024-03-02T09:07:23;99522.22;;;18.38;52.85
19676;BME280;39539;52.202;9.876;2024-03-02T09:09:49;99519.06;;;18.07;52.85
19676;BME280;39539;52.202;9.876;2024-03-02T09:12:14;99500.50;;;17.76;53.03
19676;BME280;39539;52.202;9.876;2024-03-02T09:14:40;99515.78;;;17.46;54.10
19676;BME280;39539;52.202;9.876;2024-03-02T09:17:05;99489.56;;;16.34;56.52
19676;BME280;39539;52.202;9.876;2024-03-02T09:19:31;99510.41;;;16.52;57.82
19676;BME280;39539;52.202;9.876;2024-03-02T09:22:01;99519.25;;;16.58;57.25
19676;BME280;39539;52.202;9.876;2024-03-02T09:24:28;99514.94;;;16.62;57.82
19676;BME280;39539;52.202;9.876;2024-03-02T09:26:53;99510.94;;;16.54;56.58
19676;BME280;39539;52.202;9.876;2024-03-02T09:29:20;99511.81;;;16.34;56.70
19676;BME280;39539;52.202;9.876;2024-03-02T09:31:46;99514.28;;;16.10;57.94
19676;BME280;39539;52.202;9.876;2024-03-02T09:34:12;99511.28;;;16.37;58.84
19676;BME280;39539;52.202;9.876;2024-03-02T09:36:39;99515.31;;;16.25;58.03
19676;BME280;39539;52.202;9.876;2024-03-02T09:39:04;99508.34;;;16.34;57.56
19676;BME280;39539;52.202;9.876;2024-03-02T09:41:32;99517.59;;;16.67;57.11
19676;BME280;39539;52.202;9.876;2024-03-02T09:43:59;99516.00;;;16.66;57.31
19676;BME280;39539;52.202;9.876;2024-03-02T09:46:25;99517.91;;;16.60;57.36
19676;BME280;39539;52.202;9.876;2024-03-02T09:48:50;99521.59;;;16.70;55.86
19676;BME280;39539;52.202;9.876;2024-03-02T09:51:16;99521.59;;;16.75;56.55
19676;BME280;39539;52.202;9.876;2024-03-02T09:53:47;99524.25;;;16.75;57.01
19676;BME280;39539;52.202;9.876;2024-03-02T09:56:12;99524.91;;;16.56;57.03
19676;BME280;39539;52.202;9.876;2024-03-02T09:58:38;99530.25;;;16.56;57.23
19676;BME280;39539;52.202;9.876;2024-03-02T10:01:06;99515.28;;;16.45;57.93
19676;BME280;39539;52.202;9.876;2024-03-02T10:03:33;99524.06;;;16.56;57.42
19676;BME280;39539;52.202;9.876;2024-03-02T10:06:18;99520.91;;;16.38;56.80
19676;BME280;39539;52.202;9.876;2024-03-02T10:08:44;99519.06;;;16.39;57.42
19676;BME280;39539;52.202;9.876;2024-03-02T10:11:09;99519.63;;;16.31;57.29
19676;BME280;39539;52.202;9.876;2024-03-02T10:13:34;99510.56;;;15.96;57.87
19676;BME280;39539;52.202;9.876;2024-03-02T10:16:11;99522.38;;;15.95;57.57
19676;BME280;39539;52.202;9.876;2024-03-02T10:18:37;99490.50;;;15.32;57.91
19676;BME280;39539;52.202;9.876;2024-03-02T10:21:15;99517.56;;;15.61;58.80
19676;BME280;39539;52.202;9.876;2024-03-02T10:24:07;99521.59;;;15.74;58.02
19676;BME280;39539;52.202;9.876;2024-03-02T10:26:32;99520.25;;;15.87;57.48
19676;BME280;39539;52.202;9.876;2024-03-02T10:28:58;99515.38;;;16.04;57.75
19676;BME280;39539;52.202;9.876;2024-03-02T10:31:25;99504.69;;;15.38;58.43
19676;BME280;39539;52.202;9.876;2024-03-02T10:34:06;99517.00;;;15.59;58.94
19676;BME280;39539;52.202;9.876;2024-03-02T10:36:35;99521.31;;;15.60;60.11
19676;BME280;39539;52.202;9.876;2024-03-02T10:39:03;99530.72;;;15.83;59.88
19676;BME280;39539;52.202;9.876;2024-03-02T10:41:38;99520.53;;;15.75;59.68
19676;BME280;39539;52.202;9.876;2024-03-02T10:44:19;99519.69;;;15.90;58.13
19676;BME280;39539;52.202;9.876;2024-03-02T10:46:47;99521.28;;;15.96;57.96
19676;BME280;39539;52.202;9.876;2024-03-02T10:49:14;99518.06;;;16.04;57.47
19676;BME280;39539;52.202;9.876;2024-03-02T10:51:39;99525.81;;;16.21;57.90
19676;BME280;39539;52.202;9.876;2024-03-02T10:54:05;99522.84;;;16.28;57.26
19676;BME280;39539;52.202;9.876;2024-03-02T10:56:32;99520.66;;;16.35;57.90
19676;BME280;39539;52.202;9.876;2024-03-02T10:59:34;99518.34;;;16.03;56.51
19676;BME280;39539;52.202;9.876;2024-03-02T11:02:02;99517.56;;;15.87;57.56
19676;BME280;39539;52.202;9.876;2024-03-02T11:04:29;99515.41;;;15.74;58.83
19676;BME280;39539;52.202;9.876;2024-03-02T11:07:06;99507.38;;;15.58;58.76
19676;BME280;39539;52.202;9.876;2024-03-02T11:09:56;99514.06;;;15.45;58.61
19676;BME280;39539;52.202;9.876;2024-03-02T11:12:36;99510.84;;;15.23;58.92
19676;BME280;39539;52.202;9.876;2024-03-02T11:15:10;99505.75;;;15.06;60.18
19676;BME280;39539;52.202;9.876;2024-03-02T11:17:39;99518.63;;;15.35;61.56
19676;BME280;39539;52.202;9.876;2024-03-02T11:20:08;99519.16;;;15.47;59.89
19676;BME280;39539;52.202;9.876;2024-03-02T11:22:36;99517.00;;;15.23;61.26
19676;BME280;39539;52.202;9.876;2024-03-02T11:25:02;99515.94;;;15.30;60.84
19676;BME280;39539;52.202;9.876;2024-03-02T11:33:06;99518.91;;;15.64;59.83
19676;BME280;39539;52.202;9.876;2024-03-02T11:35:40;99511.66;;;15.64;58.33
19676;BME280;39539;52.202;9.876;2024-03-02T11:38:09;99499.84;;;15.19;59.30
19676;BME280;39539;52.202;9.876;2024-03-02T11:40:35;99507.09;;;15.24;60.10
19676;BME280;39539;52.202;9.876;2024-03-02T11:43:00;99507.88;;;15.14;59.84
19676;BME280;39539;52.202;9.876;2024-03-02T11:45:27;99505.50;;;15.18;60.27
19676;BME280;39539;52.202;9.876;2024-03-02T11:47:57;99505.97;;;14.99;61.33
19676;BME280;39539;52.202;9.876;2024-03-02T11:50:40;99508.94;;;14.98;61.47
19676;BME280;39539;52.202;9.876;2024-03-02T11:53:11;99505.72;;;15.01;64.41
19676;BME280;39539;52.202;9.876;2024-03-02T11:55:38;99506.84;;;15.20;61.97
19676;BME280;39539;52.202;9.876;2024-03-02T11:58:05;99513.50;;;15.28;61.60
19676;BME280;39539;52.202;9.876;2024-03-02T12:00:31;99504.41;;;15.24;61.19
19676;BME280;39539;52.202;9.876;2024-03-02T12:03:07;99503.59;;;15.18;60.81
19676;BME280;39539;52.202;9.876;2024-03-02T12:05:33;99505.75;;;15.37;61.27
19676;BME280;39539;52.202;9.876;2024-03-02T12:08:00;99495.84;;;15.17;60.11
19676;BME280;39539;52.202;9.876;2024-03-02T12:10:26;99495.56;;;15.18;60.26
19676;BME280;39539;52.202;9.876;2024-03-02T12:13:00;99489.69;;;15.47;60.57
19676;BME280;39539;52.202;9.876;2024-03-02T12:15:32;99488.88;;;15.67;59.38
19676;BME280;39539;52.202;9.876;2024-03-02T12:18:00;99497.22;;;15.70;60.66
19676;BME280;39539;52.202;9.876;2024-03-02T12:20:28;99482.22;;;15.69;59.94
19676;BME280;39539;52.202;9.876;2024-03-02T12:22:58;99474.44;;;15.73;59.27
19676;BME280;39539;52.202;9.876;2024-03-02T12:25:26;99475.78;;;15.81;58.22
19676;BME280;39539;52.202;9.876;2024-03-02T12:27:56;99474.16;;;15.85;58.86
19676;BME280;39539;52.202;9.876;2024-03-02T12:30:23;99472.25;;;15.90;57.75
19676;BME280;39539;52.202;9.876;2024-03-02T12:32:49;99467.44;;;15.87;56.75
19676;BME280;39539;52.202;9.876;2024-03-02T12:35:15;99474.69;;;15.92;57.81
19676;BME280;39539;52.202;9.876;2024-03-02T12:37:48;99467.19;;;15.84;58.96
19676;BME280;39539;52.202;9.876;2024-03-02T12:40:20;99473.09;;;15.91;57.44
19676;BME280;39539;52.202;9.876;2024-03-02T12:42:49;99463.97;;;15.77;57.46
19676;BME280;39539;52.202;9.876;2024-03-02T12:45:16;99452.75;;;15.69;57.41
19676;BME280;39539;52.202;9.876;2024-03-02T12:47:42;99461.88;;;15.68;58.65
19676;BME280;39539;52.202;9.876;2024-03-02T12:50:10;99455.44;;;15.49;57.58
19676;BME280;39539;52.202;9.876;2024-03-02T12:52:37;99443.63;;;15.14;59.33
19676;BME280;39539;52.202;9.876;2024-03-02T12:55:05;99445.25;;;15.25;58.38
19676;BME280;39539;52.202;9.876;2024-03-02T12:57:32;99443.66;;;15.24;59.71
19676;BME280;39539;52.202;9.876;2024-03-02T12:59:59;99440.16;;;15.19;59.54
19676;BME280;39539;52.202;9.876;2024-03-02T13:02:29;99440.69;;;15.11;57.70
19676;BME280;39539;52.202;9.876;2024-03-02T13:04:55;99433.72;;;15.04;57.64
19676;BME280;39539;52.202;9.876;2024-03-02T13:07:20;99422.50;;;14.92;58.27
19676;BME280;39539;52.202;9.876;2024-03-02T13:09:48;99426.50;;;14.95;57.86
19676;BME280;39539;52.202;9.876;2024-03-02T13:12:15;99431.84;;;14.85;56.86
19676;BME280;39539;52.202;9.876;2024-03-02T13:14:42;99425.13;;;14.72;57.90